LTFJ/SAW METAR and TAF weather

Enter ICAO airport designator
Station Type Date Time Source
LTFJ METAR 2022/01/29 10:50 UTC NOAA

LTFJ 291050Z 09004KT 050V140 9999 SCT040 BKN090 07/00 Q1022 NOSIG


Station Type Date Time Source
LTFJ Decoded METAR 2022/01/29 10:50 UTC NOAA

Istanbul / Sabiha Gokcen, Turkey (LTFJ) 40-53-55N 029-18-33E
Jan 29, 2022 - 05:50 AM EST / 2022.01.29 1050 UTC
Wind: from the E (090 degrees) at 5 MPH (4 KT) (direction variable):0
Visibility: greater than 7 mile(s):0
Sky conditions: mostly cloudy
Temperature: 44 F (7 C)
Dew Point: 32 F (0 C)
Relative Humidity: 60%
Pressure (altimeter): 30.18 in. Hg (1022 hPa)
ob: LTFJ 291050Z 09004KT 050V140 9999 SCT040 BKN090 07/00 Q1022 NOSIG
cycle: 11

Station Type Date Time Source
LTFJ TAF 2022/01/29 12:03 UTC NOAA

TAF LTFJ 291040Z 2912/3012 VRB02KT 9999 FEW040 SCT100
BECMG 2912/2915 01012KT PROB40
TEMPO 3001/3005 1200 BCFG BKN008
BECMG 3006/3010 CAVOK

Example: see airport list